sensor_id;sensor_type;location;lat;lon;timestamp;temperature;humidity
921;DHT22;447;51.332;6.778;2024-02-26T00:01:04;9.60;99.90
921;DHT22;447;51.332;6.778;2024-02-26T00:03:31;9.60;99.90
921;DHT22;447;51.332;6.778;2024-02-26T00:05:59;9.60;99.90
921;DHT22;447;51.332;6.778;2024-02-26T00:08:25;9.60;99.90
921;DHT22;447;51.332;6.778;2024-02-26T00:10:54;9.60;99.90
921;DHT22;447;51.332;6.778;2024-02-26T00:13:22;9.60;99.90
921;DHT22;447;51.332;6.778;2024-02-26T00:15:51;9.70;99.90
921;DHT22;447;51.332;6.778;2024-02-26T00:18:17;9.50;99.90
921;DHT22;447;51.332;6.778;2024-02-26T00:20:43;9.60;99.90
921;DHT22;447;51.332;6.778;2024-02-26T00:23:09;9.60;99.90
921;DHT22;447;51.332;6.778;2024-02-26T00:25:35;9.60;99.90
921;DHT22;447;51.332;6.778;2024-02-26T00:28:04;9.60;99.90
921;DHT22;447;51.332;6.778;2024-02-26T00:30:31;9.60;99.90
921;DHT22;447;51.332;6.778;2024-02-26T00:32:56;9.70;99.90
921;DHT22;447;51.332;6.778;2024-02-26T00:35:22;9.60;99.90
921;DHT22;447;51.332;6.778;2024-02-26T00:37:51;9.60;99.90
921;DHT22;447;51.332;6.778;2024-02-26T00:40:17;9.60;99.90
921;DHT22;447;51.332;6.778;2024-02-26T00:42:45;9.60;99.90
921;DHT22;447;51.332;6.778;2024-02-26T00:45:14;9.60;99.90
921;DHT22;447;51.332;6.778;2024-02-26T00:47:42;9.60;99.90
921;DHT22;447;51.332;6.778;2024-02-26T00:50:15;9.60;99.90
921;DHT22;447;51.332;6.778;2024-02-26T00:52:43;9.60;99.90
921;DHT22;447;51.332;6.778;2024-02-26T00:55:09;9.60;99.90
921;DHT22;447;51.332;6.778;2024-02-26T00:57:35;9.60;99.90
921;DHT22;447;51.332;6.778;2024-02-26T01:00:04;9.50;99.90
921;DHT22;447;51.332;6.778;2024-02-26T01:02:36;9.60;99.90
921;DHT22;447;51.332;6.778;2024-02-26T01:05:04;9.50;99.90
921;DHT22;447;51.332;6.778;2024-02-26T01:07:34;9.50;99.90
921;DHT22;447;51.332;6.778;2024-02-26T01:10:02;9.50;99.90
921;DHT22;447;51.332;6.778;2024-02-26T01:12:29;9.50;99.90
921;DHT22;447;51.332;6.778;2024-02-26T01:14:55;9.50;99.90
921;DHT22;447;51.332;6.778;2024-02-26T01:17:21;9.50;99.90
921;DHT22;447;51.332;6.778;2024-02-26T01:19:47;9.60;99.90
921;DHT22;447;51.332;6.778;2024-02-26T01:22:16;9.50;99.90
921;DHT22;447;51.332;6.778;2024-02-26T01:24:42;9.70;99.90
921;DHT22;447;51.332;6.778;2024-02-26T01:27:08;9.50;99.90
921;DHT22;447;51.332;6.778;2024-02-26T01:29:35;9.50;99.90
921;DHT22;447;51.332;6.778;2024-02-26T01:32:03;9.50;99.90
921;DHT22;447;51.332;6.778;2024-02-26T01:34:31;9.50;99.90
921;DHT22;447;51.332;6.778;2024-02-26T01:36:58;9.50;99.90
921;DHT22;447;51.332;6.778;2024-02-26T01:39:24;9.50;99.90
921;DHT22;447;51.332;6.778;2024-02-26T01:41:52;9.50;99.90
921;DHT22;447;51.332;6.778;2024-02-26T01:44:18;9.60;99.90
921;DHT22;447;51.332;6.778;2024-02-26T01:46:47;9.50;99.90
921;DHT22;447;51.332;6.778;2024-02-26T01:49:16;9.50;99.90
921;DHT22;447;51.332;6.778;2024-02-26T01:51:43;9.50;99.90
921;DHT22;447;51.332;6.778;2024-02-26T01:54:09;9.50;99.90
921;DHT22;447;51.332;6.778;2024-02-26T01:56:37;9.50;99.90
921;DHT22;447;51.332;6.778;2024-02-26T01:59:09;9.50;99.90
921;DHT22;447;51.332;6.778;2024-02-26T02:01:36;9.50;99.90
921;DHT22;447;51.332;6.778;2024-02-26T02:04:03;9.60;99.90
921;DHT22;447;51.332;6.778;2024-02-26T02:06:29;9.50;99.90
921;DHT22;447;51.332;6.778;2024-02-26T02:08:56;9.50;99.90
921;DHT22;447;51.332;6.778;2024-02-26T02:11:22;9.50;99.90
921;DHT22;447;51.332;6.778;2024-02-26T02:13:48;9.50;99.90
921;DHT22;447;51.332;6.778;2024-02-26T02:21:13;9.50;99.90
921;DHT22;447;51.332;6.778;2024-02-26T02:23:39;9.50;99.90
921;DHT22;447;51.332;6.778;2024-02-26T02:26:05;9.50;99.90
921;DHT22;447;51.332;6.778;2024-02-26T02:28:31;9.50;99.90
921;DHT22;447;51.332;6.778;2024-02-26T02:30:57;9.40;99.90
921;DHT22;447;51.332;6.778;2024-02-26T02:33:25;9.40;99.90
921;DHT22;447;51.332;6.778;2024-02-26T02:35:52;9.50;99.90
921;DHT22;447;51.332;6.778;2024-02-26T02:38:20;9.70;99.90
921;DHT22;447;51.332;6.778;2024-02-26T02:40:50;9.50;99.90
921;DHT22;447;51.332;6.778;2024-02-26T02:43:15;9.40;99.90
921;DHT22;447;51.332;6.778;2024-02-26T02:45:42;9.50;99.90
921;DHT22;447;51.332;6.778;2024-02-26T02:48:13;9.40;99.90
921;DHT22;447;51.332;6.778;2024-02-26T02:50:39;9.40;99.90
921;DHT22;447;51.332;6.778;2024-02-26T02:53:05;9.50;99.90
921;DHT22;447;51.332;6.778;2024-02-26T02:55:34;9.50;99.90
921;DHT22;447;51.332;6.778;2024-02-26T02:58:06;9.40;99.90
921;DHT22;447;51.332;6.778;2024-02-26T03:00:32;9.50;99.90
921;DHT22;447;51.332;6.778;2024-02-26T03:02:58;9.40;99.90
921;DHT22;447;51.332;6.778;2024-02-26T03:05:27;9.40;99.90
921;DHT22;447;51.332;6.778;2024-02-26T03:07:55;9.50;99.90
921;DHT22;447;51.332;6.778;2024-02-26T03:10:21;9.40;99.90
921;DHT22;447;51.332;6.778;2024-02-26T03:12:50;9.40;99.90
921;DHT22;447;51.332;6.778;2024-02-26T03:15:16;9.40;99.90
921;DHT22;447;51.332;6.778;2024-02-26T03:17:42;9.40;99.90
921;DHT22;447;51.332;6.778;2024-02-26T03:20:10;9.40;99.90
921;DHT22;447;51.332;6.778;2024-02-26T03:22:38;9.40;99.90
921;DHT22;447;51.332;6.778;2024-02-26T03:25:07;9.40;99.90
921;DHT22;447;51.332;6.778;2024-02-26T03:27:33;9.40;99.90
921;DHT22;447;51.332;6.778;2024-02-26T03:30:02;9.50;99.90
921;DHT22;447;51.332;6.778;2024-02-26T03:32:29;9.40;99.90
921;DHT22;447;51.332;6.778;2024-02-26T03:34:55;9.40;99.90
921;DHT22;447;51.332;6.778;2024-02-26T03:37:22;9.40;99.90
921;DHT22;447;51.332;6.778;2024-02-26T03:39:48;9.40;99.90
921;DHT22;447;51.332;6.778;2024-02-26T03:42:14;9.40;99.90
921;DHT22;447;51.332;6.778;2024-02-26T03:44:40;9.40;99.90
921;DHT22;447;51.332;6.778;2024-02-26T03:47:06;9.40;99.90
921;DHT22;447;51.332;6.778;2024-02-26T03:49:32;9.40;99.90
921;DHT22;447;51.332;6.778;2024-02-26T03:52:01;9.40;99.90
921;DHT22;447;51.332;6.778;2024-02-26T03:54:26;9.40;99.90
921;DHT22;447;51.332;6.778;2024-02-26T03:56:53;9.40;99.90
921;DHT22;447;51.332;6.778;2024-02-26T03:59:19;9.40;99.90
921;DHT22;447;51.332;6.778;2024-02-26T04:01:46;9.40;99.90
921;DHT22;447;51.332;6.778;2024-02-26T04:04:15;9.30;99.90
921;DHT22;447;51.332;6.778;2024-02-26T04:06:47;9.30;99.90
921;DHT22;447;51.332;6.778;2024-02-26T04:09:14;9.30;99.90
921;DHT22;447;51.332;6.778;2024-02-26T04:11:40;9.40;99.90
921;DHT22;447;51.332;6.778;2024-02-26T04:14:06;9.40;99.90
921;DHT22;447;51.332;6.778;2024-02-26T04:16:37;9.30;99.90
921;DHT22;447;51.332;6.778;2024-02-26T04:19:05;9.30;99.90
921;DHT22;447;51.332;6.778;2024-02-26T04:21:32;9.30;99.90
921;DHT22;447;51.332;6.778;2024-02-26T04:23:58;9.30;99.90
921;DHT22;447;51.332;6.778;2024-02-26T04:26:30;9.30;99.90
921;DHT22;447;51.332;6.778;2024-02-26T04:28:56;9.30;99.90
921;DHT22;447;51.332;6.778;2024-02-26T04:31:22;9.30;99.90
921;DHT22;447;51.332;6.778;2024-02-26T04:33:50;9.40;99.90
921;DHT22;447;51.332;6.778;2024-02-26T04:36:17;9.30;99.90
921;DHT22;447;51.332;6.778;2024-02-26T04:38:47;9.30;99.90
921;DHT22;447;51.332;6.778;2024-02-26T04:41:12;9.30;99.90
921;DHT22;447;51.332;6.778;2024-02-26T04:43:41;9.30;99.90
921;DHT22;447;51.332;6.778;2024-02-26T04:46:10;9.30;99.90
921;DHT22;447;51.332;6.778;2024-02-26T04:48:38;9.30;99.90
921;DHT22;447;51.332;6.778;2024-02-26T04:51:06;9.30;99.90
921;DHT22;447;51.332;6.778;2024-02-26T04:53:34;9.30;99.90
921;DHT22;447;51.332;6.778;2024-02-26T04:56:00;9.30;99.90
921;DHT22;447;51.332;6.778;2024-02-26T04:58:26;9.30;99.90
921;DHT22;447;51.332;6.778;2024-02-26T05:00:52;9.30;99.90
921;DHT22;447;51.332;6.778;2024-02-26T05:03:18;9.30;99.90
921;DHT22;447;51.332;6.778;2024-02-26T05:05:44;9.30;99.90
921;DHT22;447;51.332;6.778;2024-02-26T05:08:11;9.30;99.90
921;DHT22;447;51.332;6.778;2024-02-26T05:10:37;9.30;99.90
921;DHT22;447;51.332;6.778;2024-02-26T05:13:07;9.30;99.90
921;DHT22;447;51.332;6.778;2024-02-26T05:15:33;9.30;99.90
921;DHT22;447;51.332;6.778;2024-02-26T05:18:01;9.30;99.90
921;DHT22;447;51.332;6.778;2024-02-26T05:20:28;9.30;99.90
921;DHT22;447;51.332;6.778;2024-02-26T05:22:56;9.30;99.90
921;DHT22;447;51.332;6.778;2024-02-26T05:25:27;9.20;99.90
921;DHT22;447;51.332;6.778;2024-02-26T05:27:53;9.30;99.90
921;DHT22;447;51.332;6.778;2024-02-26T05:30:19;9.20;99.90
921;DHT22;447;51.332;6.778;2024-02-26T05:32:45;9.30;99.90
921;DHT22;447;51.332;6.778;2024-02-26T05:35:11;9.20;99.90
921;DHT22;447;51.332;6.778;2024-02-26T05:37:37;9.20;99.90
921;DHT22;447;51.332;6.778;2024-02-26T05:40:04;9.20;99.90
921;DHT22;447;51.332;6.778;2024-02-26T05:42:31;9.30;99.90
921;DHT22;447;51.332;6.778;2024-02-26T05:44:57;9.20;99.90
921;DHT22;447;51.332;6.778;2024-02-26T05:47:23;9.20;99.90
921;DHT22;447;51.332;6.778;2024-02-26T05:49:49;9.20;99.90
921;DHT22;447;51.332;6.778;2024-02-26T05:52:17;9.20;99.90
921;DHT22;447;51.332;6.778;2024-02-26T05:54:43;9.20;99.90
921;DHT22;447;51.332;6.778;2024-02-26T05:57:09;9.20;99.90
921;DHT22;447;51.332;6.778;2024-02-26T05:59:43;9.20;99.90
921;DHT22;447;51.332;6.778;2024-02-26T06:02:10;9.20;99.90
921;DHT22;447;51.332;6.778;2024-02-26T06:04:36;9.20;99.90
921;DHT22;447;51.332;6.778;2024-02-26T06:07:02;9.20;99.90
921;DHT22;447;51.332;6.778;2024-02-26T06:09:29;9.20;99.90
921;DHT22;447;51.332;6.778;2024-02-26T06:11:55;9.20;99.90
921;DHT22;447;51.332;6.778;2024-02-26T06:14:21;9.20;99.90
921;DHT22;447;51.332;6.778;2024-02-26T06:16:47;9.20;99.90
921;DHT22;447;51.332;6.778;2024-02-26T06:19:14;9.20;99.90
921;DHT22;447;51.332;6.778;2024-02-26T06:21:43;9.20;99.90
921;DHT22;447;51.332;6.778;2024-02-26T06:24:09;9.20;99.90
921;DHT22;447;51.332;6.778;2024-02-26T06:26:35;9.20;99.90
921;DHT22;447;51.332;6.778;2024-02-26T06:29:01;9.20;99.90
921;DHT22;447;51.332;6.778;2024-02-26T06:31:30;9.20;99.90
921;DHT22;447;51.332;6.778;2024-02-26T06:33:56;9.10;99.90
921;DHT22;447;51.332;6.778;2024-02-26T06:36:22;9.20;99.90
921;DHT22;447;51.332;6.778;2024-02-26T06:38:48;9.20;99.90
921;DHT22;447;51.332;6.778;2024-02-26T06:41:15;9.20;99.90
921;DHT22;447;51.332;6.778;2024-02-26T06:43:41;9.10;99.90
921;DHT22;447;51.332;6.778;2024-02-26T06:46:07;9.20;99.90
921;DHT22;447;51.332;6.778;2024-02-26T06:48:33;9.20;99.90
921;DHT22;447;51.332;6.778;2024-02-26T06:51:02;9.20;99.90
921;DHT22;447;51.332;6.778;2024-02-26T06:53:28;9.20;99.90
921;DHT22;447;51.332;6.778;2024-02-26T06:55:54;9.10;99.90
921;DHT22;447;51.332;6.778;2024-02-26T06:58:22;9.20;99.90
921;DHT22;447;51.332;6.778;2024-02-26T07:00:51;9.20;99.90
921;DHT22;447;51.332;6.778;2024-02-26T07:03:17;9.20;99.90
921;DHT22;447;51.332;6.778;2024-02-26T07:05:43;9.10;99.90
921;DHT22;447;51.332;6.778;2024-02-26T07:08:10;9.10;99.90
921;DHT22;447;51.332;6.778;2024-02-26T07:10:37;9.10;99.90
921;DHT22;447;51.332;6.778;2024-02-26T07:13:03;9.10;99.90
921;DHT22;447;51.332;6.778;2024-02-26T07:15:29;9.10;99.90
921;DHT22;447;51.332;6.778;2024-02-26T07:17:55;9.10;99.90
921;DHT22;447;51.332;6.778;2024-02-26T07:20:24;9.10;99.90
921;DHT22;447;51.332;6.778;2024-02-26T07:22:50;9.10;99.90
921;DHT22;447;51.332;6.778;2024-02-26T07:25:16;9.10;99.90
921;DHT22;447;51.332;6.778;2024-02-26T07:27:47;9.10;99.90
921;DHT22;447;51.332;6.778;2024-02-26T07:30:14;9.10;99.90
921;DHT22;447;51.332;6.778;2024-02-26T07:32:40;9.10;99.90
921;DHT22;447;51.332;6.778;2024-02-26T07:35:06;9.10;99.90
921;DHT22;447;51.332;6.778;2024-02-26T07:37:33;9.10;99.90
921;DHT22;447;51.332;6.778;2024-02-26T07:39:59;9.10;99.90
921;DHT22;447;51.332;6.778;2024-02-26T07:42:25;9.10;99.90
921;DHT22;447;51.332;6.778;2024-02-26T07:44:55;9.10;99.90
921;DHT22;447;51.332;6.778;2024-02-26T07:47:23;9.10;99.90
921;DHT22;447;51.332;6.778;2024-02-26T07:49:52;9.10;99.90
921;DHT22;447;51.332;6.778;2024-02-26T07:52:21;9.10;99.90
921;DHT22;447;51.332;6.778;2024-02-26T07:54:47;9.10;99.90
921;DHT22;447;51.332;6.778;2024-02-26T07:57:16;9.00;99.90
921;DHT22;447;51.332;6.778;2024-02-26T07:59:43;9.10;99.90
921;DHT22;447;51.332;6.778;2024-02-26T08:02:10;9.10;99.90
921;DHT22;447;51.332;6.778;2024-02-26T08:04:36;9.10;99.90
921;DHT22;447;51.332;6.778;2024-02-26T08:07:03;9.10;99.90
921;DHT22;447;51.332;6.778;2024-02-26T08:09:29;9.10;99.90
921;DHT22;447;51.332;6.778;2024-02-26T08:11:55;9.10;99.90
921;DHT22;447;51.332;6.778;2024-02-26T08:14:21;9.10;99.90
921;DHT22;447;51.332;6.778;2024-02-26T08:16:47;9.10;99.90
921;DHT22;447;51.332;6.778;2024-02-26T08:19:13;9.10;99.90
921;DHT22;447;51.332;6.778;2024-02-26T08:21:43;9.10;99.90
921;DHT22;447;51.332;6.778;2024-02-26T08:24:09;9.10;99.90
921;DHT22;447;51.332;6.778;2024-02-26T08:26:38;9.10;99.90
921;DHT22;447;51.332;6.778;2024-02-26T08:29:08;9.10;99.90
921;DHT22;447;51.332;6.778;2024-02-26T08:31:35;9.10;99.90
921;DHT22;447;51.332;6.778;2024-02-26T08:34:05;9.10;99.90
921;DHT22;447;51.332;6.778;2024-02-26T08:36:33;9.10;99.90
921;DHT22;447;51.332;6.778;2024-02-26T08:39:01;9.10;99.90
921;DHT22;447;51.332;6.778;2024-02-26T08:41:27;9.00;99.90
921;DHT22;447;51.332;6.778;2024-02-26T08:43:53;9.10;99.90
921;DHT22;447;51.332;6.778;2024-02-26T08:46:20;9.00;99.90
921;DHT22;447;51.332;6.778;2024-02-26T08:48:47;9.10;99.90
921;DHT22;447;51.332;6.778;2024-02-26T08:51:13;9.00;99.90
921;DHT22;447;51.332;6.778;2024-02-26T08:53:39;9.10;99.90
921;DHT22;447;51.332;6.778;2024-02-26T08:56:05;9.10;99.90
921;DHT22;447;51.332;6.778;2024-02-26T08:58:31;9.10;99.90
921;DHT22;447;51.332;6.778;2024-02-26T09:00:58;9.10;99.90
921;DHT22;447;51.332;6.778;2024-02-26T09:03:26;9.00;99.90
921;DHT22;447;51.332;6.778;2024-02-26T09:05:52;9.10;99.90
921;DHT22;447;51.332;6.778;2024-02-26T09:08:18;9.10;99.90
921;DHT22;447;51.332;6.778;2024-02-26T09:10:44;9.00;99.90
921;DHT22;447;51.332;6.778;2024-02-26T09:13:10;9.10;99.90
921;DHT22;447;51.332;6.778;2024-02-26T09:15:36;8.90;99.90
921;DHT22;447;51.332;6.778;2024-02-26T09:18:02;9.10;99.90
921;DHT22;447;51.332;6.778;2024-02-26T09:20:30;9.10;99.90
921;DHT22;447;51.332;6.778;2024-02-26T09:22:57;9.10;99.90
921;DHT22;447;51.332;6.778;2024-02-26T09:25:23;9.10;99.90
921;DHT22;447;51.332;6.778;2024-02-26T09:27:49;9.10;99.90
921;DHT22;447;51.332;6.778;2024-02-26T09:30:16;9.10;99.90
921;DHT22;447;51.332;6.778;2024-02-26T09:32:46;9.10;99.90
921;DHT22;447;51.332;6.778;2024-02-26T09:35:12;9.10;99.90
921;DHT22;447;51.332;6.778;2024-02-26T09:37:39;9.10;99.90
921;DHT22;447;51.332;6.778;2024-02-26T09:40:05;9.00;99.90
921;DHT22;447;51.332;6.778;2024-02-26T09:42:32;9.10;99.90
921;DHT22;447;51.332;6.778;2024-02-26T09:45:00;9.10;99.90
921;DHT22;447;51.332;6.778;2024-02-26T09:47:31;9.10;99.90
921;DHT22;447;51.332;6.778;2024-02-26T09:49:59;9.10;99.90
921;DHT22;447;51.332;6.778;2024-02-26T09:52:28;9.10;99.90
921;DHT22;447;51.332;6.778;2024-02-26T09:54:56;9.10;99.90
921;DHT22;447;51.332;6.778;2024-02-26T09:57:22;9.00;99.90
921;DHT22;447;51.332;6.778;2024-02-26T09:59:53;9.10;99.90
921;DHT22;447;51.332;6.778;2024-02-26T10:02:25;9.00;99.90
921;DHT22;447;51.332;6.778;2024-02-26T10:04:51;9.00;99.90
921;DHT22;447;51.332;6.778;2024-02-26T10:07:22;9.00;99.90
921;DHT22;447;51.332;6.778;2024-02-26T10:09:48;9.00;99.90
921;DHT22;447;51.332;6.778;2024-02-26T10:12:18;9.10;99.90
921;DHT22;447;51.332;6.778;2024-02-26T10:14:45;9.10;99.90
921;DHT22;447;51.332;6.778;2024-02-26T10:17:14;9.00;99.90
921;DHT22;447;51.332;6.778;2024-02-26T10:19:41;9.10;99.90
921;DHT22;447;51.332;6.778;2024-02-26T10:22:09;9.20;99.90
921;DHT22;447;51.332;6.778;2024-02-26T10:24:35;9.10;99.90
921;DHT22;447;51.332;6.778;2024-02-26T10:27:05;9.00;99.90
921;DHT22;447;51.332;6.778;2024-02-26T10:29:34;9.10;99.90
921;DHT22;447;51.332;6.778;2024-02-26T10:32:03;9.10;99.90
921;DHT22;447;51.332;6.778;2024-02-26T10:34:29;9.00;99.90
921;DHT22;447;51.332;6.778;2024-02-26T10:36:56;9.10;99.90
921;DHT22;447;51.332;6.778;2024-02-26T10:39:29;9.10;99.90
921;DHT22;447;51.332;6.778;2024-02-26T10:41:55;9.10;99.90
921;DHT22;447;51.332;6.778;2024-02-26T10:44:21;9.10;99.90
921;DHT22;447;51.332;6.778;2024-02-26T10:46:48;9.10;99.90
921;DHT22;447;51.332;6.778;2024-02-26T10:49:18;9.10;99.90
921;DHT22;447;51.332;6.778;2024-02-26T10:51:50;9.20;99.90
921;DHT22;447;51.332;6.778;2024-02-26T10:54:19;9.10;99.90
921;DHT22;447;51.332;6.778;2024-02-26T10:56:46;9.10;99.90
921;DHT22;447;51.332;6.778;2024-02-26T10:59:14;9.10;99.90
921;DHT22;447;51.332;6.778;2024-02-26T11:01:48;9.10;99.90
921;DHT22;447;51.332;6.778;2024-02-26T11:04:16;9.10;99.90
921;DHT22;447;51.332;6.778;2024-02-26T11:06:43;9.10;99.90
921;DHT22;447;51.332;6.778;2024-02-26T11:09:12;9.10;99.90
921;DHT22;447;51.332;6.778;2024-02-26T11:11:40;9.10;99.90
921;DHT22;447;51.332;6.778;2024-02-26T11:14:09;9.10;99.90
921;DHT22;447;51.332;6.778;2024-02-26T11:16:36;9.10;99.90
921;DHT22;447;51.332;6.778;2024-02-26T11:19:07;9.10;99.90
921;DHT22;447;51.332;6.778;2024-02-26T11:21:38;9.10;99.90
921;DHT22;447;51.332;6.778;2024-02-26T11:24:07;9.10;99.90
921;DHT22;447;51.332;6.778;2024-02-26T11:26:37;9.00;99.90
921;DHT22;447;51.332;6.778;2024-02-26T11:29:08;9.10;99.90
921;DHT22;447;51.332;6.778;2024-02-26T11:31:38;9.10;99.90
921;DHT22;447;51.332;6.778;2024-02-26T11:34:04;9.10;99.90
921;DHT22;447;51.332;6.778;2024-02-26T11:36:30;9.10;99.90
921;DHT22;447;51.332;6.778;2024-02-26T11:38:58;9.10;99.90
921;DHT22;447;51.332;6.778;2024-02-26T11:41:25;9.10;99.90
921;DHT22;447;51.332;6.778;2024-02-26T11:43:57;9.10;99.90
921;DHT22;447;51.332;6.778;2024-02-26T11:46:40;9.10;99.90
921;DHT22;447;51.332;6.778;2024-02-26T11:49:32;9.20;99.90
921;DHT22;447;51.332;6.778;2024-02-26T11:51:58;9.10;99.90
921;DHT22;447;51.332;6.778;2024-02-26T12:00:10;9.10;99.90
921;DHT22;447;51.332;6.778;2024-02-26T12:02:46;9.20;99.90
921;DHT22;447;51.332;6.778;2024-02-26T12:05:20;9.10;99.90
921;DHT22;447;51.332;6.778;2024-02-26T12:13:00;9.20;99.90
921;DHT22;447;51.332;6.778;2024-02-26T12:18:18;9.20;99.90
921;DHT22;447;51.332;6.778;2024-02-26T12:20:44;9.20;99.90
921;DHT22;447;51.332;6.778;2024-02-26T12:23:15;9.20;99.90
921;DHT22;447;51.332;6.778;2024-02-26T12:25:45;9.20;99.90
921;DHT22;447;51.332;6.778;2024-02-26T12:28:16;9.20;99.90
921;DHT22;447;51.332;6.778;2024-02-26T12:30:43;9.20;99.90
921;DHT22;447;51.332;6.778;2024-02-26T12:33:10;9.20;99.90
921;DHT22;447;51.332;6.778;2024-02-26T12:35:39;9.20;99.90
921;DHT22;447;51.332;6.778;2024-02-26T12:38:05;9.20;99.90
921;DHT22;447;51.332;6.778;2024-02-26T12:40:32;9.20;99.90
921;DHT22;447;51.332;6.778;2024-02-26T12:43:00;9.20;99.90
921;DHT22;447;51.332;6.778;2024-02-26T12:45:27;9.20;99.90
921;DHT22;447;51.332;6.778;2024-02-26T12:47:54;9.20;99.90
921;DHT22;447;51.332;6.778;2024-02-26T12:50:20;9.30;99.90
921;DHT22;447;51.332;6.778;2024-02-26T12:52:47;9.20;99.90
921;DHT22;447;51.332;6.778;2024-02-26T12:55:18;9.30;99.90
921;DHT22;447;51.332;6.778;2024-02-26T12:57:48;9.30;99.90
921;DHT22;447;51.332;6.778;2024-02-26T13:00:20;9.20;99.90
921;DHT22;447;51.332;6.778;2024-02-26T13:02:49;9.30;99.90
921;DHT22;447;51.332;6.778;2024-02-26T13:05:18;9.30;99.90
921;DHT22;447;51.332;6.778;2024-02-26T13:07:45;9.30;99.90
921;DHT22;447;51.332;6.778;2024-02-26T13:10:19;9.30;99.90
921;DHT22;447;51.332;6.778;2024-02-26T13:12:51;9.30;99.90
921;DHT22;447;51.332;6.778;2024-02-26T13:15:18;9.30;99.90
921;DHT22;447;51.332;6.778;2024-02-26T13:17:45;9.30;99.90
921;DHT22;447;51.332;6.778;2024-02-26T13:20:12;9.30;99.90
921;DHT22;447;51.332;6.778;2024-02-26T13:22:41;9.30;99.90
921;DHT22;447;51.332;6.778;2024-02-26T13:25:08;9.30;99.90
921;DHT22;447;51.332;6.778;2024-02-26T13:27:34;9.30;99.90
921;DHT22;447;51.332;6.778;2024-02-26T13:30:12;9.30;99.90
921;DHT22;447;51.332;6.778;2024-02-26T13:32:40;9.30;99.90
921;DHT22;447;51.332;6.778;2024-02-26T13:35:11;9.30;99.90
921;DHT22;447;51.332;6.778;2024-02-26T13:37:38;9.30;99.90
921;DHT22;447;51.332;6.778;2024-02-26T13:40:09;9.30;99.90
921;DHT22;447;51.332;6.778;2024-02-26T13:42:37;9.30;99.90
921;DHT22;447;51.332;6.778;2024-02-26T13:45:08;9.30;99.90
921;DHT22;447;51.332;6.778;2024-02-26T13:47:38;9.30;99.90
921;DHT22;447;51.332;6.778;2024-02-26T13:50:08;9.30;99.90
921;DHT22;447;51.332;6.778;2024-02-26T13:52:34;9.30;99.90
921;DHT22;447;51.332;6.778;2024-02-26T13:55:05;9.30;99.90
921;DHT22;447;51.332;6.778;2024-02-26T13:57:31;9.30;99.90
921;DHT22;447;51.332;6.778;2024-02-26T14:00:00;9.30;99.90
921;DHT22;447;51.332;6.778;2024-02-26T14:02:28;9.30;99.90
921;DHT22;447;51.332;6.778;2024-02-26T14:04:55;9.30;99.90
921;DHT22;447;51.332;6.778;2024-02-26T14:07:21;9.30;99.90
921;DHT22;447;51.332;6.778;2024-02-26T14:09:47;9.30;99.90
921;DHT22;447;51.332;6.778;2024-02-26T14:12:13;9.40;99.90
921;DHT22;447;51.332;6.778;2024-02-26T14:14:41;9.30;99.90
921;DHT22;447;51.332;6.778;2024-02-26T14:17:08;9.30;99.90
921;DHT22;447;51.332;6.778;2024-02-26T14:19:34;9.40;99.90
921;DHT22;447;51.332;6.778;2024-02-26T14:22:00;9.40;99.90
921;DHT22;447;51.332;6.778;2024-02-26T14:24:26;9.40;99.90
921;DHT22;447;51.332;6.778;2024-02-26T14:26:55;9.40;99.90
921;DHT22;447;51.332;6.778;2024-02-26T14:29:24;9.40;99.90
921;DHT22;447;51.332;6.778;2024-02-26T14:31:50;9.30;99.90
921;DHT22;447;51.332;6.778;2024-02-26T14:34:18;9.40;99.90
921;DHT22;447;51.332;6.778;2024-02-26T14:36:47;9.40;99.90
921;DHT22;447;51.332;6.778;2024-02-26T14:39:13;9.40;99.90
921;DHT22;447;51.332;6.778;2024-02-26T14:41:42;9.30;99.90
921;DHT22;447;51.332;6.778;2024-02-26T14:44:09;9.20;99.90
921;DHT22;447;51.332;6.778;2024-02-26T14:46:36;9.30;99.90
921;DHT22;447;51.332;6.778;2024-02-26T14:49:05;9.40;99.90
921;DHT22;447;51.332;6.778;2024-02-26T14:51:36;9.40;99.90
921;DHT22;447;51.332;6.778;2024-02-26T14:54:02;9.40;99.90
921;DHT22;447;51.332;6.778;2024-02-26T14:56:30;9.40;99.90
921;DHT22;447;51.332;6.778;2024-02-26T14:58:58;9.40;99.90
921;DHT22;447;51.332;6.778;2024-02-26T15:01:25;9.40;99.90
921;DHT22;447;51.332;6.778;2024-02-26T15:03:51;9.40;99.90
921;DHT22;447;51.332;6.778;2024-02-26T15:06:22;9.40;99.90
921;DHT22;447;51.332;6.778;2024-02-26T15:08:48;9.40;99.90
921;DHT22;447;51.332;6.778;2024-02-26T15:11:19;9.40;99.90
921;DHT22;447;51.332;6.778;2024-02-26T15:13:48;9.40;99.90
921;DHT22;447;51.332;6.778;2024-02-26T15:16:18;9.40;99.90
921;DHT22;447;51.332;6.778;2024-02-26T15:18:47;9.40;99.90
921;DHT22;447;51.332;6.778;2024-02-26T15:21:14;9.40;99.90
921;DHT22;447;51.332;6.778;2024-02-26T15:23:43;9.40;99.90
921;DHT22;447;51.332;6.778;2024-02-26T15:26:10;9.40;99.90
921;DHT22;447;51.332;6.778;2024-02-26T15:28:37;9.30;99.90
921;DHT22;447;51.332;6.778;2024-02-26T15:31:03;9.40;99.90
921;DHT22;447;51.332;6.778;2024-02-26T15:33:29;9.40;99.90
921;DHT22;447;51.332;6.778;2024-02-26T15:35:55;9.40;99.90
921;DHT22;447;51.332;6.778;2024-02-26T15:38:21;9.40;99.90
921;DHT22;447;51.332;6.778;2024-02-26T15:40:50;9.40;99.90
921;DHT22;447;51.332;6.778;2024-02-26T15:43:19;9.40;99.90
921;DHT22;447;51.332;6.778;2024-02-26T15:45:49;9.40;99.90
921;DHT22;447;51.332;6.778;2024-02-26T15:48:15;9.40;99.90
921;DHT22;447;51.332;6.778;2024-02-26T15:50:42;9.40;99.90
921;DHT22;447;51.332;6.778;2024-02-26T15:53:09;9.40;99.90
921;DHT22;447;51.332;6.778;2024-02-26T15:55:35;9.40;99.90
921;DHT22;447;51.332;6.778;2024-02-26T15:58:01;9.40;99.90
921;DHT22;447;51.332;6.778;2024-02-26T16:00:30;9.40;99.90
921;DHT22;447;51.332;6.778;2024-02-26T16:02:56;9.40;99.90
921;DHT22;447;51.332;6.778;2024-02-26T16:05:25;9.50;99.90
921;DHT22;447;51.332;6.778;2024-02-26T16:07:55;9.40;99.90
921;DHT22;447;51.332;6.778;2024-02-26T16:10:24;9.40;99.90
921;DHT22;447;51.332;6.778;2024-02-26T16:12:59;9.40;99.90
921;DHT22;447;51.332;6.778;2024-02-26T16:15:26;9.40;99.90
921;DHT22;447;51.332;6.778;2024-02-26T16:17:53;9.40;99.90
921;DHT22;447;51.332;6.778;2024-02-26T16:20:22;9.40;99.90
921;DHT22;447;51.332;6.778;2024-02-26T16:22:50;9.40;99.90
921;DHT22;447;51.332;6.778;2024-02-26T16:25:19;9.50;99.90
921;DHT22;447;51.332;6.778;2024-02-26T16:27:46;9.40;99.90
921;DHT22;447;51.332;6.778;2024-02-26T16:30:12;9.40;99.90
921;DHT22;447;51.332;6.778;2024-02-26T16:32:40;9.40;99.90
921;DHT22;447;51.332;6.778;2024-02-26T16:35:07;9.40;99.90
921;DHT22;447;51.332;6.778;2024-02-26T16:37:34;9.40;99.90
921;DHT22;447;51.332;6.778;2024-02-26T16:40:04;9.40;99.90
921;DHT22;447;51.332;6.778;2024-02-26T16:42:31;9.40;99.90
921;DHT22;447;51.332;6.778;2024-02-26T16:45:01;9.40;99.90
921;DHT22;447;51.332;6.778;2024-02-26T16:47:33;9.40;99.90
921;DHT22;447;51.332;6.778;2024-02-26T16:49:59;9.40;99.90
921;DHT22;447;51.332;6.778;2024-02-26T16:52:28;9.40;99.90
921;DHT22;447;51.332;6.778;2024-02-26T16:54:56;9.40;99.90
921;DHT22;447;51.332;6.778;2024-02-26T16:57:22;9.40;99.90
921;DHT22;447;51.332;6.778;2024-02-26T16:59:51;9.40;99.90
921;DHT22;447;51.332;6.778;2024-02-26T17:02:19;9.40;99.90
921;DHT22;447;51.332;6.778;2024-02-26T17:04:47;9.40;99.90
921;DHT22;447;51.332;6.778;2024-02-26T17:07:14;9.40;99.90
921;DHT22;447;51.332;6.778;2024-02-26T17:09:42;9.40;99.90
921;DHT22;447;51.332;6.778;2024-02-26T17:12:08;9.40;99.90